createdAt,value
2018-06-04T00:02:28.130Z,7.13
2018-06-04T00:04:58.147Z,7.30
2018-06-04T00:07:26.751Z,7.20
2018-06-04T00:09:55.293Z,7.15
2018-06-04T00:12:23.916Z,7.62
2018-06-04T00:14:52.809Z,6.85
2018-06-04T00:17:21.529Z,6.87
2018-06-04T00:19:50.488Z,6.90
2018-06-04T00:22:19.480Z,7.10
2018-06-04T00:24:48.429Z,6.97
2018-06-04T00:27:16.735Z,6.60
2018-06-04T00:29:45.514Z,7.35
2018-06-04T00:32:14.101Z,7.30
2018-06-04T00:37:42.684Z,6.67
2018-06-04T00:40:11.293Z,7.33
2018-06-04T00:42:39.885Z,7.10
2018-06-04T00:45:08.651Z,7.25
2018-06-04T00:47:37.264Z,6.90
2018-06-04T00:50:05.873Z,7.17
2018-06-04T00:52:34.455Z,7.35
2018-06-04T00:55:03.064Z,7.17
2018-06-04T00:57:32.543Z,7.10
2018-06-04T01:00:01.434Z,6.97
2018-06-04T01:02:30.045Z,7.97
2018-06-04T01:04:59.301Z,7.30
2018-06-04T01:07:29.316Z,7.22
2018-06-04T01:09:57.978Z,7.50
2018-06-04T01:12:26.487Z,7.67
2018-06-04T01:14:55.140Z,7.20
2018-06-04T01:17:23.814Z,6.95
2018-06-04T01:19:52.453Z,7.62
2018-06-04T01:22:21.087Z,7.53
2018-06-04T01:24:49.657Z,6.92
2018-06-04T01:27:18.272Z,7.45
2018-06-04T01:29:46.935Z,7.40
2018-06-04T01:32:15.806Z,7.53
2018-06-04T01:34:44.419Z,7.25
2018-06-04T01:37:13.100Z,7.70
2018-06-04T01:39:42.617Z,7.62
2018-06-04T01:42:11.259Z,7.40
2018-06-04T01:44:39.849Z,7.20
2018-06-04T01:47:08.549Z,7.55
2018-06-04T01:49:37.194Z,7.35
2018-06-04T01:52:05.926Z,7.42
2018-06-04T01:54:34.521Z,7.55
2018-06-04T01:57:03.163Z,7.87
2018-06-04T01:59:31.781Z,7.62
2018-06-04T02:02:00.432Z,7.33
2018-06-04T02:04:29.044Z,7.53
2018-06-04T02:06:57.613Z,7.33
2018-06-04T02:09:26.216Z,7.10
2018-06-04T02:11:54.854Z,7.45
2018-06-04T02:14:23.447Z,7.00
2018-06-04T02:16:52.022Z,7.35
2018-06-04T02:19:21.242Z,7.92
2018-06-04T02:21:49.960Z,7.40
2018-06-04T02:24:18.574Z,7.80
2018-06-04T02:26:47.301Z,7.62
2018-06-04T02:29:16.310Z,7.50
2018-06-04T02:31:45.264Z,8.35
2018-06-04T02:34:13.896Z,7.87
2018-06-04T02:36:42.542Z,8.57
2018-06-04T02:39:11.218Z,8.23
2018-06-04T02:41:39.924Z,8.43
2018-06-04T02:44:08.816Z,8.90
2018-06-04T02:46:37.730Z,8.25
2018-06-04T02:49:06.495Z,8.00
2018-06-04T02:51:35.828Z,8.15
2018-06-04T02:54:04.480Z,8.53
2018-06-04T02:56:33.510Z,8.10
2018-06-04T02:59:02.104Z,7.90
2018-06-04T03:01:30.851Z,8.65
2018-06-04T03:03:59.956Z,7.80
2018-06-04T03:06:28.548Z,8.08
2018-06-04T03:08:57.212Z,8.13
2018-06-04T03:11:26.156Z,8.60
2018-06-04T03:13:54.834Z,8.40
2018-06-04T03:16:23.419Z,8.00
2018-06-04T03:18:52.130Z,8.18
2018-06-04T03:21:20.835Z,8.53
2018-06-04T03:23:49.364Z,8.20
2018-06-04T03:26:17.956Z,8.15
2018-06-04T03:28:46.536Z,8.23
2018-06-04T03:31:15.289Z,7.95
2018-06-04T03:33:44.916Z,8.15
2018-06-04T03:36:13.623Z,8.35
2018-06-04T03:38:42.639Z,8.08
2018-06-04T03:41:11.449Z,8.38
2018-06-04T03:43:40.180Z,8.35
2018-06-04T03:46:09.169Z,8.23
2018-06-04T03:48:37.934Z,8.65
2018-06-04T03:51:07.653Z,9.07
2018-06-04T03:53:37.057Z,8.45
2018-06-04T03:56:06.095Z,8.58
2018-06-04T03:58:34.760Z,8.48
2018-06-04T04:01:03.487Z,8.88
2018-06-04T04:03:32.196Z,8.53
2018-06-04T04:06:00.780Z,8.93
2018-06-04T04:08:29.311Z,9.03
2018-06-04T04:10:58.186Z,8.45
2018-06-04T04:13:27.115Z,8.73
2018-06-04T04:15:55.628Z,9.20
2018-06-04T04:18:24.303Z,9.13
2018-06-04T04:20:52.766Z,8.98
2018-06-04T04:23:21.671Z,7.97
2018-06-04T04:25:50.157Z,8.93
2018-06-04T04:28:19.438Z,8.95
2018-06-04T04:30:48.261Z,8.98
2018-06-04T04:33:17.289Z,9.60
2018-06-04T04:35:46.692Z,9.00
2018-06-04T04:38:15.493Z,9.28
2018-06-04T04:40:44.227Z,9.63
2018-06-04T04:43:13.535Z,9.88
2018-06-04T04:45:42.536Z,10.13
2018-06-04T04:48:12.036Z,10.00
2018-06-04T04:50:41.558Z,9.48
2018-06-04T04:53:10.442Z,9.53
2018-06-04T04:55:39.186Z,9.18
2018-06-04T04:58:07.868Z,9.20
2018-06-04T05:00:36.585Z,9.05
2018-06-04T05:03:05.407Z,9.18
2018-06-04T05:05:34.047Z,9.30
2018-06-04T05:08:03.143Z,8.70
2018-06-04T05:10:31.912Z,9.00
2018-06-04T05:13:00.588Z,9.03
2018-06-04T05:15:29.194Z,8.70
2018-06-04T05:17:57.908Z,9.08
2018-06-04T05:20:27.357Z,8.83
2018-06-04T05:22:55.954Z,9.23
2018-06-04T05:25:24.766Z,8.73
2018-06-04T05:27:53.735Z,8.95
2018-06-04T05:30:22.390Z,9.33
2018-06-04T05:32:51.028Z,8.95
2018-06-04T05:35:19.690Z,8.23
2018-06-04T05:37:48.708Z,9.18
2018-06-04T05:40:17.542Z,8.13
2018-06-04T05:42:46.300Z,8.90
2018-06-04T05:45:15.279Z,8.25
2018-06-04T05:47:44.904Z,8.03
2018-06-04T05:50:13.694Z,7.83
2018-06-04T05:52:42.334Z,8.13
2018-06-04T05:55:11.005Z,7.80
2018-06-04T05:57:39.673Z,7.25
2018-06-04T06:00:08.524Z,7.05
2018-06-04T06:02:37.812Z,7.30
2018-06-04T06:05:06.523Z,6.95
2018-06-04T06:07:35.242Z,7.40
2018-06-04T06:10:04.061Z,6.00
2018-06-04T06:12:33.929Z,6.37
2018-06-04T06:15:02.474Z,5.78
2018-06-04T06:17:31.258Z,6.13
2018-06-04T06:19:59.986Z,6.20
2018-06-04T06:22:29.188Z,6.07
2018-06-04T06:24:59.584Z,6.10
2018-06-04T06:27:28.757Z,5.53
2018-06-04T06:29:58.387Z,5.67
2018-06-04T06:32:27.696Z,6.10
2018-06-04T06:34:56.329Z,4.95
2018-06-04T06:37:24.920Z,5.50
2018-06-04T06:39:53.601Z,6.20
2018-06-04T06:42:22.224Z,6.00
2018-06-04T06:44:50.891Z,6.00
2018-06-04T06:47:19.493Z,5.87
2018-06-04T06:49:48.146Z,5.83
2018-06-04T06:52:16.796Z,5.67
2018-06-04T06:54:45.517Z,5.28
2018-06-04T06:57:14.525Z,5.42
2018-06-04T06:59:43.165Z,5.80
2018-06-04T07:02:12.429Z,5.30
2018-06-04T07:04:41.184Z,5.28
2018-06-04T07:07:09.882Z,4.90
2018-06-04T07:09:38.486Z,4.42
2018-06-04T07:12:07.621Z,4.90
2018-06-04T07:14:36.419Z,4.30
2018-06-04T07:17:05.088Z,4.40
2018-06-04T07:19:33.777Z,4.22
2018-06-04T07:22:02.439Z,4.03
2018-06-04T07:24:31.094Z,4.23
2018-06-04T07:26:59.724Z,3.95
2018-06-04T07:29:28.460Z,3.98
2018-06-04T07:31:57.209Z,4.05
2018-06-04T07:34:25.843Z,4.20
2018-06-04T07:36:54.428Z,3.95
2018-06-04T07:39:23.770Z,3.87
2018-06-04T07:41:52.857Z,3.98
2018-06-04T07:44:21.541Z,3.75
2018-06-04T07:46:50.273Z,4.37
2018-06-04T07:49:18.829Z,3.58
2018-06-04T07:51:47.410Z,3.67
2018-06-04T07:54:16.099Z,3.55
2018-06-04T07:56:45.138Z,3.47
2018-06-04T07:59:13.874Z,3.47
2018-06-04T08:01:42.874Z,3.57
2018-06-04T08:04:11.524Z,3.25
2018-06-04T08:06:40.102Z,3.27
2018-06-04T08:09:08.772Z,3.30
2018-06-04T08:11:37.429Z,3.20
2018-06-04T08:14:06.085Z,3.20
2018-06-04T08:16:34.877Z,3.27
2018-06-04T08:19:03.520Z,3.20
2018-06-04T08:21:32.173Z,3.37
2018-06-04T08:24:01.026Z,3.00
2018-06-04T08:26:29.674Z,3.07
2018-06-04T08:28:58.254Z,2.85
2018-06-04T08:31:26.992Z,3.08
2018-06-04T08:33:55.651Z,3.22
2018-06-04T08:36:24.306Z,3.00
2018-06-04T08:38:53.558Z,2.70
2018-06-04T08:41:22.251Z,3.10
2018-06-04T08:43:50.963Z,2.67
2018-06-04T08:46:19.735Z,2.90
2018-06-04T08:48:48.272Z,2.90
2018-06-04T08:51:16.531Z,3.00
2018-06-04T08:53:45.316Z,2.95
2018-06-04T08:56:13.987Z,2.55
2018-06-04T08:58:42.510Z,2.70
2018-06-04T09:01:11.307Z,2.77
2018-06-04T09:03:40.999Z,2.62
2018-06-04T09:06:09.623Z,3.08
2018-06-04T09:08:38.173Z,2.90
2018-06-04T09:11:06.926Z,2.95
2018-06-04T09:13:36.154Z,2.70
2018-06-04T09:16:04.818Z,2.85
2018-06-04T09:18:33.708Z,3.08
2018-06-04T09:21:02.283Z,2.75
2018-06-04T09:23:31.199Z,2.72
2018-06-04T09:25:59.852Z,2.50
2018-06-04T09:28:28.571Z,2.65
2018-06-04T09:30:57.314Z,2.77
2018-06-04T09:33:27.756Z,2.50
2018-06-04T09:35:56.408Z,2.12
2018-06-04T09:38:25.291Z,2.80
2018-06-04T09:40:53.854Z,2.47
2018-06-04T09:43:23.552Z,2.40
2018-06-04T09:45:52.239Z,2.30
2018-06-04T09:48:20.914Z,2.00
2018-06-04T09:50:49.801Z,2.20
2018-06-04T09:53:18.584Z,2.30
2018-06-04T09:55:47.272Z,2.15
2018-06-04T09:58:16.097Z,2.27
2018-06-04T10:00:45.016Z,2.37
2018-06-04T10:03:14.638Z,2.40
2018-06-04T10:05:43.427Z,2.22
2018-06-04T10:08:12.591Z,2.00
2018-06-04T10:10:43.195Z,2.33
2018-06-04T10:13:12.404Z,2.25
2018-06-04T10:15:42.098Z,2.12
2018-06-04T10:18:11.157Z,2.00
2018-06-04T10:20:39.941Z,2.20
2018-06-04T10:23:08.829Z,1.92
2018-06-04T10:25:37.852Z,2.00
2018-06-04T10:28:06.576Z,1.72
2018-06-04T10:30:35.225Z,1.60
2018-06-04T10:33:03.988Z,2.17
2018-06-04T10:35:32.584Z,1.90
2018-06-04T10:38:02.192Z,1.90
2018-06-04T10:40:30.898Z,1.80
2018-06-04T10:42:59.540Z,1.95
2018-06-04T10:45:29.025Z,1.80
2018-06-04T10:47:58.229Z,1.90
2018-06-04T10:50:26.844Z,1.90
2018-06-04T10:52:55.767Z,1.90
2018-06-04T10:55:24.435Z,1.90
2018-06-04T10:57:53.124Z,1.90
2018-06-04T11:00:21.860Z,1.80
2018-06-04T11:02:50.812Z,2.17
2018-06-04T11:05:20.861Z,2.00
2018-06-04T11:07:49.638Z,1.90
2018-06-04T11:10:19.004Z,1.60
2018-06-04T11:12:48.030Z,1.85
2018-06-04T11:15:16.763Z,1.80
2018-06-04T11:17:45.445Z,1.80
2018-06-04T11:20:14.029Z,2.02
2018-06-04T11:22:42.715Z,1.72
2018-06-04T11:25:11.453Z,2.00
2018-06-04T11:27:40.876Z,1.70
2018-06-04T11:30:09.559Z,1.95
2018-06-04T11:32:38.429Z,1.67
2018-06-04T11:35:07.076Z,1.65
2018-06-04T11:37:35.752Z,1.90
2018-06-04T11:40:04.536Z,1.90
2018-06-04T11:42:33.121Z,1.80
2018-06-04T11:45:02.008Z,1.85
2018-06-04T11:47:30.697Z,1.70
2018-06-04T11:50:00.044Z,1.70
2018-06-04T11:52:28.802Z,1.92
2018-06-04T11:54:57.618Z,1.70
2018-06-04T11:57:27.440Z,1.60
2018-06-04T11:59:56.042Z,1.72
2018-06-04T12:02:24.798Z,1.87
2018-06-04T12:04:54.037Z,1.50
2018-06-04T12:07:22.519Z,1.73
2018-06-04T12:09:51.027Z,1.75
2018-06-04T12:12:20.782Z,1.85
2018-06-04T12:14:49.436Z,1.90
2018-06-04T12:17:18.107Z,1.80
2018-06-04T12:19:48.722Z,1.70
2018-06-04T12:22:17.446Z,1.83
2018-06-04T12:24:46.121Z,1.85
2018-06-04T12:27:14.760Z,1.40
2018-06-04T12:29:43.407Z,1.77
2018-06-04T12:32:12.078Z,1.50
2018-06-04T12:34:40.670Z,1.60
2018-06-04T12:37:09.347Z,1.70
2018-06-04T12:39:38.136Z,1.60
2018-06-04T12:42:06.847Z,1.72
2018-06-04T12:44:35.536Z,1.60
2018-06-04T12:47:04.283Z,1.60
2018-06-04T12:49:33.474Z,1.60
2018-06-04T12:52:02.925Z,1.50
2018-06-04T12:54:31.481Z,1.70
2018-06-04T12:57:00.243Z,1.70
2018-06-04T12:59:29.171Z,1.83
2018-06-04T13:01:57.856Z,1.80
2018-06-04T13:04:26.580Z,1.90
2018-06-04T13:06:55.192Z,1.80
2018-06-04T13:09:23.785Z,1.67
2018-06-04T13:11:52.365Z,1.82
2018-06-04T13:14:20.946Z,1.67
2018-06-04T13:16:49.533Z,1.67
2018-06-04T13:19:18.097Z,1.70
2018-06-04T13:21:46.744Z,1.70
2018-06-04T13:24:15.319Z,1.60
2018-06-04T13:26:43.976Z,1.70
2018-06-04T13:29:12.587Z,2.08
2018-06-04T13:31:41.297Z,1.72
2018-06-04T13:34:09.934Z,1.85
2018-06-04T13:36:38.629Z,1.80
2018-06-04T13:39:08.813Z,1.90
2018-06-04T13:41:37.564Z,1.70
2018-06-04T13:44:06.429Z,1.80
2018-06-04T13:46:35.018Z,1.80
2018-06-04T13:49:03.628Z,1.70
2018-06-04T13:51:32.364Z,1.72
2018-06-04T13:54:00.949Z,1.67
2018-06-04T13:56:29.528Z,1.70
2018-06-04T13:58:58.276Z,1.60
2018-06-04T14:01:26.825Z,1.57
2018-06-04T14:03:55.437Z,1.80
2018-06-04T14:06:24.207Z,1.65
2018-06-04T14:08:53.042Z,1.60
2018-06-04T14:11:21.743Z,1.70
2018-06-04T14:13:50.252Z,1.77
2018-06-04T14:16:19.097Z,1.77
2018-06-04T14:18:49.605Z,1.37
2018-06-04T14:21:18.290Z,1.47
2018-06-04T14:23:46.936Z,1.40
2018-06-04T14:26:16.138Z,1.55
2018-06-04T14:28:44.780Z,1.40
2018-06-04T14:31:13.478Z,1.60
2018-06-04T14:33:42.804Z,1.67
2018-06-04T14:36:11.428Z,1.62
2018-06-04T14:38:40.076Z,1.60
2018-06-04T14:41:08.938Z,1.77
2018-06-04T14:43:37.652Z,1.80
2018-06-04T14:46:06.427Z,1.70
2018-06-04T14:48:34.739Z,1.50
2018-06-04T14:51:03.371Z,1.50
2018-06-04T14:53:32.031Z,1.50
2018-06-04T14:56:00.672Z,1.80
2018-06-04T14:58:30.003Z,1.35
2018-06-04T15:00:58.638Z,1.70
2018-06-04T15:03:27.269Z,1.80
2018-06-04T15:05:56.481Z,1.70
2018-06-04T15:08:25.388Z,1.50
2018-06-04T15:10:54.216Z,1.35
2018-06-04T15:13:22.871Z,1.82
2018-06-04T15:15:51.445Z,1.52
2018-06-04T15:18:20.451Z,1.45
2018-06-04T15:20:49.375Z,1.77
2018-06-04T15:23:18.162Z,1.70
2018-06-04T15:25:47.046Z,1.57
2018-06-04T15:28:15.851Z,1.62
2018-06-04T15:30:44.567Z,1.42
2018-06-04T15:33:13.367Z,1.50
2018-06-04T15:35:42.714Z,1.60
2018-06-04T15:38:11.524Z,1.80
2018-06-04T15:40:40.226Z,1.92
2018-06-04T15:43:09.164Z,1.90
2018-06-04T15:45:38.747Z,1.87
2018-06-04T15:48:07.573Z,1.90
2018-06-04T15:50:36.323Z,1.80
2018-06-04T15:53:04.941Z,2.10
2018-06-04T15:55:33.733Z,1.95
2018-06-04T15:58:02.373Z,2.17
2018-06-04T16:00:31.093Z,1.60
2018-06-04T16:02:59.741Z,1.70
2018-06-04T16:05:28.457Z,1.70
2018-06-04T16:07:57.072Z,2.20
2018-06-04T16:10:25.761Z,1.82
2018-06-04T16:12:54.653Z,2.25
2018-06-04T16:15:23.942Z,2.08
2018-06-04T16:17:52.631Z,2.17
2018-06-04T16:20:21.389Z,2.17
2018-06-04T16:22:50.102Z,2.27
2018-06-04T16:25:18.744Z,2.20
2018-06-04T16:27:47.387Z,2.22
2018-06-04T16:30:16.313Z,2.33
2018-06-04T16:32:45.012Z,2.30
2018-06-04T16:35:13.995Z,2.17
2018-06-04T16:37:43.448Z,2.22
2018-06-04T16:40:12.298Z,2.20
2018-06-04T16:42:40.951Z,2.47
2018-06-04T16:45:09.699Z,2.35
2018-06-04T16:47:38.259Z,2.12
2018-06-04T16:50:06.881Z,2.52
2018-06-04T16:52:35.531Z,2.58
2018-06-04T16:55:05.501Z,2.58
2018-06-04T16:57:34.158Z,2.47
2018-06-04T17:00:04.375Z,2.47
2018-06-04T17:02:33.138Z,2.40
2018-06-04T17:05:01.852Z,2.20
2018-06-04T17:07:30.550Z,2.50
2018-06-04T17:09:59.200Z,2.10
2018-06-04T17:12:27.827Z,2.12
2018-06-04T17:14:56.440Z,2.08
2018-06-04T17:17:25.025Z,1.95
2018-06-04T17:19:54.251Z,2.20
2018-06-04T17:22:22.840Z,2.20
2018-06-04T17:24:51.561Z,2.20
2018-06-04T17:27:20.148Z,1.82
2018-06-04T17:29:49.020Z,1.90
2018-06-04T17:32:17.594Z,2.02
2018-06-04T17:34:46.261Z,1.92
2018-06-04T17:37:15.065Z,1.98
2018-06-04T17:39:43.726Z,1.70
2018-06-04T17:42:12.581Z,1.60
2018-06-04T17:44:41.244Z,2.08
2018-06-04T17:47:09.864Z,1.70
2018-06-04T17:49:38.481Z,1.70
2018-06-04T17:52:07.046Z,1.60
2018-06-04T17:54:35.696Z,1.77
2018-06-04T17:57:04.444Z,1.67
2018-06-04T17:59:33.033Z,1.50
2018-06-04T18:02:01.575Z,1.50
2018-06-04T18:04:30.253Z,1.60
2018-06-04T18:06:58.806Z,1.45
2018-06-04T18:09:27.371Z,1.50
2018-06-04T18:11:56.141Z,1.50
2018-06-04T18:14:24.767Z,1.32
2018-06-04T18:16:53.513Z,1.70
2018-06-04T18:19:22.197Z,1.22
2018-06-04T18:21:51.654Z,1.30
2018-06-04T18:24:20.322Z,1.60
2018-06-04T18:26:49.304Z,1.32
2018-06-04T18:29:19.035Z,1.40
2018-06-04T18:31:47.617Z,1.12
2018-06-04T18:34:16.512Z,1.32
2018-06-04T18:36:45.077Z,1.43
2018-06-04T18:39:13.717Z,1.60
2018-06-04T18:41:42.653Z,1.65
2018-06-04T18:44:11.412Z,1.50
2018-06-04T18:46:39.990Z,1.65
2018-06-04T18:49:09.525Z,1.67
2018-06-04T18:51:38.094Z,1.50
2018-06-04T18:54:07.039Z,1.60
2018-06-04T18:56:35.600Z,1.57
2018-06-04T18:59:04.139Z,1.70
2018-06-04T19:01:32.898Z,1.77
2018-06-04T19:04:01.484Z,2.00
2018-06-04T19:06:30.043Z,2.33
2018-06-04T19:08:58.678Z,2.08
2018-06-04T19:11:27.185Z,2.20
2018-06-04T19:13:56.179Z,2.30
2018-06-04T19:16:24.666Z,2.40
2018-06-04T19:18:53.410Z,3.00
2018-06-04T19:21:21.993Z,2.73
2018-06-04T19:23:50.588Z,3.10
2018-06-04T19:26:19.175Z,2.60
2018-06-04T19:28:47.770Z,3.20
2018-06-04T19:31:17.983Z,3.50
2018-06-04T19:33:46.570Z,3.47
2018-06-04T19:36:15.171Z,3.47
2018-06-04T19:38:43.759Z,3.20
2018-06-04T19:41:12.448Z,3.98
2018-06-04T19:43:41.190Z,3.65
2018-06-04T19:46:09.873Z,3.80
2018-06-04T19:48:38.744Z,3.80
2018-06-04T19:51:07.325Z,3.77
2018-06-04T19:53:36.003Z,3.65
2018-06-04T19:56:04.580Z,3.30
2018-06-04T19:58:33.383Z,3.80
2018-06-04T20:01:02.090Z,3.98
2018-06-04T20:03:31.065Z,3.90
2018-06-04T20:05:59.752Z,3.98
2018-06-04T20:08:29.056Z,3.72
2018-06-04T20:10:57.835Z,3.77
2018-06-04T20:13:26.493Z,3.67
2018-06-04T20:15:55.199Z,3.83
2018-06-04T20:18:24.340Z,4.12
2018-06-04T20:20:52.923Z,4.00
2018-06-04T20:23:22.216Z,3.83
2018-06-04T20:25:50.916Z,4.08
2018-06-04T20:28:19.561Z,3.80
2018-06-04T20:30:48.103Z,4.00
2018-06-04T20:33:16.880Z,4.10
2018-06-04T20:35:45.511Z,4.28
2018-06-04T20:38:14.708Z,4.12
2018-06-04T20:40:43.242Z,4.25
2018-06-04T20:43:11.796Z,3.90
2018-06-04T20:45:40.387Z,3.98
2018-06-04T20:48:08.941Z,3.87
2018-06-04T20:50:37.466Z,3.77
2018-06-04T20:53:06.267Z,4.20
2018-06-04T20:55:34.792Z,4.08
2018-06-04T20:58:03.356Z,4.03
2018-06-04T21:00:31.864Z,4.40
2018-06-04T21:03:00.496Z,4.10
2018-06-04T21:05:29.045Z,4.10
2018-06-04T21:07:57.631Z,4.20
2018-06-04T21:10:26.242Z,4.00
2018-06-04T21:12:54.806Z,4.05
2018-06-04T21:15:23.356Z,4.55
2018-06-04T21:17:51.906Z,4.07
2018-06-04T21:20:20.472Z,4.22
2018-06-04T21:22:49.077Z,4.30
2018-06-04T21:25:17.586Z,4.30
2018-06-04T21:27:46.119Z,4.40
2018-06-04T21:30:14.731Z,3.92
2018-06-04T21:32:43.208Z,4.47
2018-06-04T21:35:11.896Z,4.40
2018-06-04T21:37:40.401Z,3.92
2018-06-04T21:40:08.904Z,4.10
2018-06-04T21:42:37.569Z,4.13
2018-06-04T21:45:06.160Z,4.42
2018-06-04T21:47:34.739Z,4.20
2018-06-04T21:50:03.317Z,3.92
2018-06-04T21:52:32.753Z,3.90
2018-06-04T21:55:01.608Z,4.15
2018-06-04T21:57:30.887Z,4.22
2018-06-04T21:59:59.113Z,3.95
2018-06-04T22:02:27.971Z,4.45
2018-06-04T22:04:56.175Z,4.27
2018-06-04T22:07:24.734Z,3.97
2018-06-04T22:09:53.279Z,4.10
2018-06-04T22:12:21.831Z,4.15
2018-06-04T22:14:50.853Z,4.10
2018-06-04T22:17:19.428Z,4.03
2018-06-04T22:19:47.979Z,3.90
2018-06-04T22:22:16.525Z,3.90
2018-06-04T22:24:45.038Z,3.90
2018-06-04T22:27:13.538Z,3.87
2018-06-04T22:29:42.106Z,4.20
2018-06-04T22:32:10.594Z,4.15
2018-06-04T22:34:39.276Z,4.37
2018-06-04T22:37:07.836Z,4.37
2018-06-04T22:39:37.791Z,4.15
2018-06-04T22:42:06.534Z,4.53
2018-06-04T22:44:35.418Z,4.13
2018-06-04T22:47:03.912Z,4.25
2018-06-04T22:49:32.448Z,4.30
2018-06-04T22:52:00.771Z,4.05
2018-06-04T22:54:29.341Z,4.10
2018-06-04T22:56:57.816Z,4.30
2018-06-04T22:59:26.406Z,4.40
2018-06-04T23:01:54.895Z,4.20
2018-06-04T23:04:23.438Z,4.40
2018-06-04T23:06:51.983Z,4.30
2018-06-04T23:09:20.465Z,4.42
2018-06-04T23:11:49.011Z,4.50
2018-06-04T23:14:17.504Z,4.27
2018-06-04T23:16:46.011Z,4.50
2018-06-04T23:19:14.530Z,4.37
2018-06-04T23:21:43.072Z,4.60
2018-06-04T23:24:11.601Z,4.80
2018-06-04T23:26:40.136Z,4.70
2018-06-04T23:29:08.656Z,4.73
2018-06-04T23:31:37.292Z,4.70
2018-06-04T23:34:05.855Z,4.75
2018-06-04T23:36:34.373Z,4.92
2018-06-04T23:39:02.919Z,4.70
2018-06-04T23:41:31.510Z,4.60
2018-06-04T23:44:00.054Z,5.05
2018-06-04T23:46:28.569Z,5.17
2018-06-04T23:48:57.109Z,4.43
2018-06-04T23:51:25.638Z,4.65
2018-06-04T23:53:54.151Z,4.92
2018-06-04T23:56:22.808Z,4.97
2018-06-04T23:58:51.286Z,4.92
